Terminal Aerodrome Forecast
Issued by NWS Cleveland, OH

Home | Current Version | Previous Version | Text Only | Print | Product List | Glossary On
Versions: 1 2 3 4 5 6 7 8 9 10 11 12 13 14 15 16 17 18 19 20 21 22 23 24 25 26
000
FTUS41 KCLE 010500 CCA
TAFCLE
TAF COR
KCLE 010525Z 0106/0212 14005KT 3SM -SN SCT015 OVC025
      TEMPO 0106/0108 1SM -SN OVC015
     FM010800 15005KT 2SM -SN OVC010
      TEMPO 0108/0112 3/4SM -SN OVC008
     FM011200 16005KT 3/4SM -SN OVC008
     FM011800 24005KT 2SM -SN OVC012
     FM012200 27005KT 3SM -SN OVC020
     FM020200 27007KT 6SM -SN OVC025
     FM020800 26011KT P6SM OVC080=

USA.gov is the U.S. government's official web portal to all federal, state and local government web resources and services.